Latest Weather Observations for Tunnack

IDT60801

Issued at 10:35 pm EDT Thursday 27 November 2014 (issued every 30 minutes, with the page automatically refreshed every 10 minutes)

About weather observations | Map of weather stations | Latest weather observations for TAS | Other Formats
Station Details ID: 094195 Name: TUNNACK FIRE STATION Lat: -42.45 Lon: 147.46 Height: 461.5 m
Data from the previous 72 hours. | See also: Recent months at Tunnack
Date/Time
EDT
Temp
°C
App
Temp
°C
Dew
Point
Rel
Hum
%
Delta-T
°C
Wind Press
QNH
hPa
Press
MSL
hPa
Rain
since 9 am
mm
Dir
 
Spd
km/h
Gust
km/h
Spd
kts
Gust
kts
27/10:30pm 6.2 3.4 5.0 92 0.5 S 9 13 5 7 1024.0 1023.9 0.0
27/10:00pm 6.0 3.8 5.3 95 0.3 S 6 9 3 5 1023.9 1023.8 0.0
27/09:30pm 6.7 5.6 4.9 88 0.8 CALM 0 0 0 0 1023.9 1023.8 0.0
27/09:00pm 7.6 6.1 5.1 84 1.1 SW 2 7 1 4 1023.7 1023.7 0.0
27/08:30pm 8.7 6.3 5.3 79 1.6 SW 7 11 4 6 1023.6 1023.6 0.0
27/08:00pm 10.1 7.0 5.5 73 2.1 SSW 11 17 6 9 1023.2 1023.1 0.0
27/07:30pm 12.2 8.7 5.6 64 3.2 SSW 13 17 7 9 1022.9 1022.8 0.0
27/07:00pm 13.4 9.8 5.1 57 3.9 S 13 17 7 9 1022.8 1022.7 0.0
27/06:30pm 14.8 10.8 4.8 51 4.8 WSW 15 22 8 12 1022.6 1022.5 0.0
27/06:00pm 15.4 11.5 3.2 44 5.7 SSW 13 20 7 11 1022.5 1022.4 0.0
27/05:30pm 16.0 11.8 3.8 44 5.8 SW 15 26 8 14 1022.4 1022.3 0.0
27/05:00pm 16.4 11.7 3.1 41 6.2 WSW 17 35 9 19 1022.3 1022.2 0.0
27/04:30pm 16.4 11.1 1.7 37 6.7 W 19 32 10 17 1022.5 1022.4 0.0
27/04:00pm 16.6 10.5 3.0 40 6.3 W 24 30 13 16 1022.4 1022.3 0.0
27/03:30pm 16.9 11.8 3.2 40 6.5 SW 19 33 10 18 1022.4 1022.3 0.0
27/03:00pm 16.4 11.0 2.4 39 6.4 SW 20 33 11 18 1022.5 1022.4 0.0
27/02:30pm 16.2 11.6 3.9 44 5.8 WNW 17 26 9 14 1022.6 1022.5 0.0
27/02:00pm 15.1 9.7 2.6 43 5.7 W 20 37 11 20 1022.6 1022.5 0.0
27/01:30pm 15.5 10.0 3.9 46 5.5 W 22 35 12 19 1022.8 1022.7 0.0
27/01:00pm 14.7 9.6 3.2 46 5.3 W 19 32 10 17 1022.8 1022.7 0.0
27/12:30pm 14.0 8.7 2.9 47 5.1 SW 20 26 11 14 1022.7 1022.6 0.0
27/12:00pm 14.2 9.1 3.9 50 4.8 WSW 20 32 11 17 1023.0 1022.9 0.0
27/11:30am 13.3 7.5 2.5 48 4.8 W 22 39 12 21 1023.0 1022.9 0.0
27/11:00am 13.1 7.1 3.2 51 4.5 WSW 24 37 13 20 1023.1 1023.0 0.0
27/10:30am 12.0 5.4 1.9 50 4.4 WSW 26 43 14 23 1023.1 1023.0 0.0
27/10:00am 11.4 4.5 2.4 54 4.0 SW 28 39 15 21 1023.2 1023.1 0.0
27/09:31am 10.9 3.9 2.0 54 3.9 W 28 48 15 26 1022.9 1022.8 0.0
27/09:30am 11.0 4.1 2.3 55 3.8 WSW 28 43 15 23 1022.9 1022.8 0.0
27/09:00am 9.9 3.6 1.8 57 3.5 WSW 24 41 13 22 1023.0 1022.9 0.0
27/08:30am 9.8 2.9 2.4 60 3.2 WSW 28 44 15 24 1022.6 1022.5 0.0
27/08:00am 9.7 4.6 2.8 62 3.0 W 19 30 10 16 1022.9 1022.8 0.0
27/07:30am 7.8 2.3 1.9 66 2.5 W 20 28 11 15 1022.7 1022.6 0.0
27/07:00am 7.6 3.2 2.5 70 2.2 W 15 20 8 11 1022.4 1022.3 0.0
27/06:30am 7.0 2.9 2.1 71 2.1 W 13 17 7 9 1022.0 1021.9 0.0
27/06:00am 5.5 1.7 1.8 77 1.5 W 11 20 6 11 1021.9 1021.8 0.0
27/05:30am 4.4 0.9 1.3 80 1.2 WNW 9 15 5 8 1021.6 1021.5 0.0
27/05:00am 4.6 0.7 0.9 77 1.5 W 11 17 6 9 1021.1 1021.0 0.0
27/04:30am 4.7 0.4 1.0 77 1.5 W 13 19 7 10 1020.9 1020.8 0.0
27/04:00am 5.1 0.4 1.2 76 1.6 W 15 20 8 11 1020.7 1020.6 0.0
27/03:30am 5.4 0.4 1.5 76 1.6 W 17 26 9 14 1020.4 1020.3 0.0
27/03:00am 5.4 0.1 1.7 77 1.5 W 19 28 10 15 1020.3 1020.2 0.0
27/02:30am 5.7 0.3 1.2 73 1.8 W 19 30 10 16 1020.6 1020.5 0.0
27/02:00am 5.9 0.5 1.4 73 1.8 W 19 26 10 14 1020.5 1020.4 0.0
27/01:30am 5.9 0.6 1.8 75 1.7 W 19 24 10 13 1020.6 1020.5 0.0
27/01:00am 4.9 0.0 1.7 80 1.3 WNW 17 20 9 11 1020.7 1020.6 0.0
27/12:30am 5.2 0.5 1.1 75 1.7 WNW 15 20 8 11 1021.0 1020.9 0.0
27/12:00am 5.7 1.8 0.9 71 1.9 W 11 15 6 8 1020.8 1020.7 0.0
 
Date/Time
EDT
Temp
°C
App
Temp
°C
Dew
Point
Rel
Hum
%
Delta-T
°C
Wind Press
QNH
hPa
Press
MSL
hPa
Rain
since 9 am
mm
Dir
 
Spd
km/h
Gust
km/h
Spd
kts
Gust
kts
26/11:30pm 6.0 1.3 1.0 70 2.0 W 15 22 8 12 1020.6 1020.5 0.0
26/11:00pm 6.5 2.2 0.8 67 2.3 WNW 13 19 7 10 1020.7 1020.6 0.0
26/10:30pm 7.5 1.1 1.1 64 2.6 WSW 24 37 13 20 1020.8 1020.7 0.0
26/10:00pm 7.7 0.9 0.9 62 2.8 W 26 43 14 23 1020.4 1020.3 0.0
26/09:30pm 8.4 2.4 1.1 60 3.0 W 22 39 12 21 1020.2 1020.1 0.0
26/09:00pm 8.7 2.7 0.9 58 3.2 WSW 22 41 12 22 1019.8 1019.7 0.0
26/08:30pm 9.4 3.0 1.1 56 3.5 W 24 44 13 24 1019.5 1019.3 0.0
26/08:00pm 10.1 4.8 2.0 57 3.5 SW 19 28 10 15 1019.0 1018.9 0.0
26/07:30pm 10.7 5.2 1.8 54 3.9 W 20 35 11 19 1018.5 1018.4 0.0
26/07:00pm 11.9 6.2 2.9 54 4.0 WSW 22 33 12 18 1018.2 1018.1 0.0
26/06:30pm 12.5 7.2 3.2 53 4.2 W 20 32 11 17 1017.7 1017.5 0.0
26/06:00pm 13.0 7.7 2.8 50 4.6 WSW 20 30 11 16 1017.2 1017.0 0.0
26/05:30pm 12.7 6.7 3.1 52 4.4 W 24 39 13 21 1017.0 1016.8 0.0
26/05:00pm 13.9 7.9 3.4 49 4.8 W 24 39 13 21 1016.5 1016.4 0.0
26/04:50pm 13.9 7.4 4.8 54 4.3 W 28 46 15 25 1016.5 1016.4 0.0
26/04:30pm 14.3 7.4 4.6 52 4.6 W 30 43 16 23 1016.3 1016.2 0.0
26/04:00pm 14.4 8.4 3.5 48 5.1 SW 24 39 13 21 1016.0 1015.9 0.0
26/03:30pm 14.8 8.3 4.8 51 4.8 W 28 39 15 21 1015.9 1015.7 0.0
26/03:07pm 13.7 6.9 2.9 48 4.9 W 28 46 15 25 1015.7 1015.5 0.0
26/03:00pm 13.8 6.9 2.7 47 5.0 WSW 28 43 15 23 1015.7 1015.5 0.0
26/02:30pm 14.5 7.4 3.6 48 5.1 WSW 30 48 16 26 1015.4 1015.2 0.0
26/02:18pm 13.6 6.6 2.2 46 5.1 WSW 28 46 15 25 1015.4 1015.2 0.0
26/02:00pm 14.6 8.6 5.1 53 4.6 W 26 37 14 20 1015.3 1015.1 0.0
26/01:30pm 15.4 8.9 4.8 49 5.1 WSW 28 43 15 23 1015.1 1014.9 0.0
26/01:15pm 12.7 4.9 2.0 48 4.7 WSW 32 52 17 28 1015.0 1014.8 0.0
26/01:00pm 14.1 7.3 3.3 48 5.0 WSW 28 39 15 21 1015.0 1014.8 0.0
26/12:38pm 13.5 6.7 4.9 56 4.1 W 30 48 16 26 1015.0 1014.8 0.0
26/12:30pm 13.4 5.8 2.9 49 4.8 W 32 46 17 25 1014.9 1014.7 0.0
26/12:22pm 13.0 6.4 4.4 56 4.0 WSW 28 46 15 25 1015.0 1014.8 0.0
26/12:00pm 11.9 5.4 2.9 54 4.0 W 26 39 14 21 1014.8 1014.6 0.0
26/11:30am 11.8 5.4 3.1 55 3.9 WSW 26 43 14 23 1014.5 1014.4 0.0
26/11:00am 12.3 6.3 3.3 54 4.1 WSW 24 37 13 20 1014.4 1014.3 0.0
26/10:30am 10.8 5.4 2.4 56 3.7 W 20 30 11 16 1014.1 1013.9 0.0
26/10:00am 10.8 4.2 1.9 54 3.9 W 26 41 14 22 1013.7 1013.5 0.0
26/09:43am 10.3 3.3 1.7 55 3.7 WSW 28 46 15 25 1013.6 1013.4 0.0
26/09:30am 10.1 4.7 2.2 58 3.4 W 20 35 11 19 1013.6 1013.4 0.0
26/09:00am 9.5 4.4 3.9 68 2.5 W 20 28 11 15 1013.0 1012.8 0.0
26/08:30am 9.3 3.7 3.3 66 2.7 W 22 33 12 18 1012.8 1012.6 0.0
26/08:00am 9.5 3.0 2.8 63 2.9 W 26 35 14 19 1012.2 1012.0 0.0
26/07:30am 9.2 4.3 2.3 62 3.0 W 17 26 9 14 1011.8 1011.6 0.0
26/07:00am 9.4 4.3 2.9 64 2.9 W 19 30 10 16 1011.4 1011.2 0.0
26/06:30am 9.1 4.0 3.9 70 2.3 W 20 33 11 18 1010.9 1010.7 0.0
26/06:00am 9.4 4.4 4.6 72 2.2 W 20 33 11 18 1010.6 1010.4 0.0
26/05:30am 9.7 4.7 4.7 71 2.3 W 20 39 11 21 1010.2 1009.9 0.0
26/05:00am 10.0 6.2 5.6 74 2.1 WNW 15 22 8 12 1009.6 1009.4 0.0
26/04:30am 9.9 6.8 5.7 75 2.0 W 11 20 6 11 1009.2 1009.0 0.0
26/04:00am 9.9 6.1 5.7 75 2.0 WNW 15 28 8 15 1009.1 1008.9 0.0
26/03:30am 9.9 4.4 5.7 75 2.0 WNW 24 41 13 22 1009.0 1008.8 0.0
26/03:08am 9.9 3.6 5.5 74 2.1 NW 28 54 15 29 1009.0 1008.8 0.0
26/03:00am 9.7 4.1 5.5 75 2.0 NW 24 35 13 19 1009.1 1008.9 0.0
26/02:30am 9.7 3.7 5.3 74 2.0 NW 26 41 14 22 1009.3 1009.1 0.0
26/02:00am 9.6 4.0 5.2 74 2.0 NW 24 39 13 21 1009.4 1009.2 0.0
26/01:30am 9.4 4.1 4.8 73 2.1 NW 22 33 12 18 1009.7 1009.5 0.0
26/01:00am 9.2 4.8 4.6 73 2.1 NW 17 28 9 15 1010.2 1009.9 0.0
26/12:30am 8.9 4.5 4.5 74 2.0 NW 17 24 9 13 1010.5 1010.3 0.0
26/12:00am 8.9 2.7 4.1 72 2.2 NW 26 33 14 18 1010.9 1010.7 0.0
 
Date/Time
EDT
Temp
°C
App
Temp
°C
Dew
Point
Rel
Hum
%
Delta-T
°C
Wind Press
QNH
hPa
Press
MSL
hPa
Rain
since 9 am
mm
Dir
 
Spd
km/h
Gust
km/h
Spd
kts
Gust
kts
25/11:30pm 8.6 2.7 3.8 72 2.1 NW 24 35 13 19 1011.2 1011.0 0.0
25/11:00pm 8.4 4.2 3.8 73 2.0 NW 15 22 8 12 1011.6 1011.4 0.0
25/10:30pm 8.5 3.0 3.8 72 2.1 WNW 22 30 12 16 1011.8 1011.6 0.0
25/10:00pm 8.7 1.1 3.9 72 2.1 WNW 33 44 18 24 1011.8 1011.6 0.0
25/09:30pm 8.1 2.2 3.8 74 1.9 WNW 24 35 13 19 1011.8 1011.6 0.0
25/09:00pm 8.1 1.4 3.8 74 1.9 WNW 28 37 15 20 1011.7 1011.5 0.0
25/08:30pm 7.9 1.7 4.1 77 1.7 WNW 26 43 14 23 1011.5 1011.3 0.0
25/08:16pm 7.7 0.8 4.5 80 1.4 WNW 30 48 16 26 1011.4 1011.2 0.0
25/08:00pm 8.7 3.2 4.1 73 2.1 WNW 22 37 12 20 1011.3 1011.1 0.0
25/07:36pm 9.0 2.4 4.0 71 2.2 WNW 28 46 15 25 1011.3 1011.1 0.0
25/07:30pm 9.2 1.8 4.0 70 2.3 WNW 32 46 17 25 1011.2 1011.0 0.0
25/07:16pm 9.7 3.0 3.4 65 2.8 WNW 28 50 15 27 1011.0 1010.8 0.0
25/07:00pm 10.0 3.7 4.0 66 2.7 W 26 41 14 22 1010.8 1010.6 0.0
25/06:30pm 10.0 2.5 3.7 65 2.8 W 32 52 17 28 1010.5 1010.3 0.0
25/06:22pm 10.0 2.9 3.7 65 2.8 W 30 52 16 28 1010.4 1010.1 0.0
25/06:00pm 10.7 3.1 4.0 63 3.1 W 33 50 18 27 1009.9 1009.7 0.0
25/05:30pm 11.5 4.5 4.0 60 3.4 W 30 50 16 27 1009.7 1009.5 0.0
25/05:11pm 10.6 2.8 4.9 68 2.6 WNW 35 69 19 37 1009.6 1009.4 0.0
25/05:00pm 11.5 5.4 6.8 73 2.3 W 28 48 15 26 1009.5 1009.3 0.0
25/04:30pm 13.3 5.8 4.5 55 4.1 W 33 52 18 28 1009.1 1008.9 0.0
25/04:02pm 13.7 6.3 4.0 52 4.5 W 32 54 17 29 1008.5 1008.2 0.0
25/04:00pm 14.0 7.2 5.1 55 4.3 W 30 46 16 25 1008.5 1008.2 0.0
25/03:33pm 13.1 7.2 7.5 69 2.8 W 28 46 15 25 1008.7 1008.5 0.0
25/03:30pm 12.6 6.4 7.7 72 2.5 W 30 46 16 25 1008.8 1008.6 0.0
25/03:00pm 11.9 3.7 6.4 69 2.7 W 39 70 21 38 1008.3 1008.0 0.0
25/02:30pm 13.7 6.9 5.1 56 4.1 W 30 56 16 30 1008.1 1007.8 0.0
25/02:00pm 14.6 6.9 5.4 54 4.5 W 35 59 19 32 1008.0 1007.7 0.0
25/01:32pm 14.2 6.9 5.3 55 4.3 WNW 33 52 18 28 1007.6 1007.4 0.0
25/01:30pm 13.7 5.9 4.8 55 4.2 WNW 35 50 19 27 1007.6 1007.4 0.0
25/01:00pm 14.6 7.0 2.8 45 5.4 W 32 54 17 29 1007.3 1007.1 0.0
25/12:30pm 13.9 5.9 3.9 51 4.7 W 35 61 19 33 1007.5 1007.3 0.0
25/12:00pm 13.4 6.8 4.3 54 4.3 W 28 56 15 30 1007.2 1007.0 0.0
25/11:30am 13.4 5.2 4.8 56 4.1 W 37 57 20 31 1006.9 1006.7 0.0
25/11:04am 12.4 4.2 2.8 52 4.3 WSW 35 54 19 29 1006.6 1006.3 0.0
25/11:00am 13.0 5.6 4.2 55 4.1 WSW 32 46 17 25 1006.6 1006.3 0.0
25/10:30am 13.2 6.0 5.1 58 3.9 W 32 57 17 31 1006.4 1006.1 0.0
25/10:03am 11.8 5.1 3.8 58 3.7 WSW 28 57 15 31 1006.1 1005.8 0.0
25/10:00am 12.3 6.6 5.0 61 3.5 WSW 24 41 13 22 1006.2 1005.9 0.0
25/09:30am 11.8 4.5 4.3 60 3.5 WSW 32 56 17 30 1006.0 1005.7 0.0
25/09:01am 10.7 3.1 3.7 62 3.2 W 33 52 18 28 1005.3 1005.1 0.0
25/09:00am 10.6 3.0 4.1 64 3.0 W 33 50 18 27 1005.3 1005.1 2.0
25/08:37am 10.5 2.9 4.0 64 3.0 W 33 59 18 32 1004.9 1004.7 2.0
25/08:30am 10.5 4.0 4.6 67 2.7 W 28 44 15 24 1004.9 1004.7 2.0
25/08:00am 10.3 4.9 4.7 68 2.6 W 22 37 12 20 1004.6 1004.3 2.0
25/07:30am 10.0 5.5 4.0 66 2.7 WSW 17 28 9 15 1004.2 1003.9 2.0
25/07:00am 8.4 3.8 3.8 73 2.1 WSW 17 33 9 18 1003.7 1003.4 2.0
25/06:30am 8.0 3.5 4.2 77 1.7 WSW 17 26 9 14 1003.1 1002.9 2.0
25/06:00am 7.4 2.9 4.2 80 1.4 W 17 32 9 17 1002.7 1002.4 2.0
25/05:30am 7.3 3.2 4.3 81 1.3 W 15 28 8 15 1002.2 1001.9 2.0
25/05:00am 6.8 0.2 4.3 84 1.1 WNW 28 43 15 23 1001.8 1001.5 2.0
25/04:30am 6.7 -0.7 4.2 84 1.1 WNW 32 43 17 23 1001.7 1001.4 2.0
25/04:00am 6.7 -0.7 3.9 82 1.2 WNW 32 43 17 23 1001.8 1001.5 2.0
25/03:30am 7.4 -0.2 3.8 78 1.6 WNW 33 44 18 24 1002.4 1002.1 2.0
25/03:12am 7.6 0.9 3.6 76 1.8 WNW 28 50 15 27 1002.5 1002.2 2.0
25/03:00am 7.5 1.2 3.7 77 1.7 WNW 26 39 14 21 1002.4 1002.1 2.0
25/02:30am 6.6 0.6 3.2 79 1.5 NW 24 37 13 20 1002.2 1001.9 2.0
25/02:00am 6.3 1.6 3.1 80 1.4 NW 17 26 9 14 1002.1 1001.8 2.0
25/01:30am 5.5 1.5 3.0 84 1.1 NW 13 20 7 11 1002.2 1001.9 2.0
25/01:00am 5.9 2.3 2.7 80 1.4 WNW 11 17 6 9 1002.8 1002.5 2.0
25/12:30am 6.5 1.4 2.8 77 1.6 NW 19 28 10 15 1003.0 1002.8 2.0
25/12:00am 6.2 1.9 3.2 81 1.3 NW 15 20 8 11 1003.3 1003.0 2.0
 
Date/Time
EDT
Temp
°C
App
Temp
°C
Dew
Point
Rel
Hum
%
Delta-T
°C
Wind Press
QNH
hPa
Press
MSL
hPa
Rain
since 9 am
mm
Dir
 
Spd
km/h
Gust
km/h
Spd
kts
Gust
kts
24/11:30pm 6.6 1.9 3.0 78 1.5 WNW 17 22 9 12 1003.4 1003.1 2.0
24/11:00pm 7.2 0.8 3.3 76 1.7 WNW 26 44 14 24 1003.6 1003.3 2.0
24/10:50pm 7.5 0.4 3.4 75 1.8 WNW 30 50 16 27 1003.6 1003.3 2.0
24/10:45pm 7.2 0.5 3.6 78 1.6 WNW 28 41 15 22 1003.6 1003.3 2.0

Other Formats:

Comma delimited format used in spreadsheet applications
http://www.bom.gov.au/fwo/IDT60801/IDT60801.94960.axf

JavaScript Object Notation format (JSON) in row-major order
http://www.bom.gov.au/fwo/IDT60801/IDT60801.94960.json